Pickering, Canada
Current Conditions -  °F | °C
As of 8:00 AM on Friday 24 Oct 2014 (Local Time) from CYKZ Reporting Station
Few Clouds Few Clouds  
Wind Chill: 39°   Ceiling: Unl
Heat Index: 39°   Visibility: 15mi
Dew Point: 37°   Wind: 0mph
Humidity: 93%   Direction: NA
Pressure: 30.04"   Gusts: NA
Location:  43.84°N, 79.08°W
Report Text: CYKZ 241200Z 00000KT 15SM FEW020 FEW240 04/03 A3004 RMK SC1CI1SC TR SLP178
Loading
Personal Weather Stations






























Interactive Weather Map
Tropical Storm Tracking
New forecast layout! Learn more

10-Day Weather Forecast

Advertisements
Track Severe Weather on mobile